Terminal Aerodrome Forecast
Issued by NWS

Home | Current Version | Previous Version | Text Only | Print | Product List | Glossary On
Versions: 1 2 3 4 5 6 7 8 9 10 11 12 13 14 15 16 17 18 19 20
000
FTUS42 KTBW 060500
TAFPGD
TAF
KPGD 060531Z 0606/0706 VRB03KT 5SM BR SCT005 OVC010
      TEMPO 0606/0610 1/2SM FG BKN004 OVC010
     FM061500 04005KT P6SM SCT005 BKN030
     FM062100 35007KT P6SM VCSH SCT030 BKN250
     FM070000 02009KT P6SM SCT030 BKN040=

USA.gov is the U.S. government's official web portal to all federal, state and local government web resources and services.